createdAt,value
2019-03-19T00:04:27.831Z,4.83
2019-03-19T00:09:32.967Z,4.88
2019-03-19T00:14:38.269Z,4.75
2019-03-19T00:19:43.280Z,4.77
2019-03-19T00:24:48.323Z,4.72
2019-03-19T00:29:53.391Z,4.60
2019-03-19T00:34:58.430Z,4.64
2019-03-19T00:40:07.112Z,4.64
2019-03-19T00:45:13.865Z,4.57
2019-03-19T00:50:19.075Z,4.41
2019-03-19T00:55:24.181Z,4.35
2019-03-19T01:00:29.291Z,4.27
2019-03-19T01:05:34.695Z,4.29
2019-03-19T01:10:39.972Z,4.31
2019-03-19T01:15:45.132Z,4.28
2019-03-19T01:20:50.487Z,4.26
2019-03-19T01:25:56.043Z,4.29
2019-03-19T01:31:01.380Z,4.39
2019-03-19T01:36:06.534Z,4.50
2019-03-19T01:41:11.551Z,4.66
2019-03-19T01:46:16.643Z,4.65
2019-03-19T01:51:21.815Z,4.53
2019-03-19T01:56:26.984Z,4.53
2019-03-19T02:01:32.125Z,4.55
2019-03-19T02:06:37.731Z,4.51
2019-03-19T02:11:42.880Z,4.54
2019-03-19T02:16:48.202Z,4.55
2019-03-19T02:21:53.240Z,4.53
2019-03-19T02:26:58.390Z,4.54
2019-03-19T02:32:03.534Z,4.53
2019-03-19T02:37:08.564Z,4.62
2019-03-19T02:42:13.655Z,4.65
2019-03-19T02:47:18.750Z,4.62
2019-03-19T02:52:23.874Z,4.66
2019-03-19T02:57:29.004Z,4.69
2019-03-19T03:02:34.063Z,4.71
2019-03-19T03:07:40.093Z,4.63
2019-03-19T03:12:45.744Z,4.46
2019-03-19T03:17:51.069Z,4.41
2019-03-19T03:22:56.261Z,4.39
2019-03-19T03:28:01.340Z,4.33
2019-03-19T03:33:06.519Z,4.21
2019-03-19T03:38:11.614Z,4.13
2019-03-19T03:43:16.727Z,4.09
2019-03-19T03:48:21.876Z,4.06
2019-03-19T03:53:26.935Z,4.00
2019-03-19T03:58:32.138Z,3.99
2019-03-19T04:03:37.153Z,3.91
2019-03-19T04:08:42.400Z,3.86
2019-03-19T04:13:47.477Z,3.88
2019-03-19T04:18:52.925Z,3.79
2019-03-19T04:23:58.165Z,3.78
2019-03-19T04:29:03.500Z,3.77
2019-03-19T04:34:08.565Z,3.77
2019-03-19T04:39:13.663Z,3.78
2019-03-19T04:44:18.717Z,3.79
2019-03-19T04:49:23.790Z,3.77
2019-03-19T04:54:29.272Z,3.88
2019-03-19T04:59:34.444Z,3.94
2019-03-19T05:04:39.619Z,4.05
2019-03-19T05:09:44.712Z,4.11
2019-03-19T05:14:49.803Z,4.19
2019-03-19T05:19:55.159Z,4.34
2019-03-19T05:25:00.300Z,4.42
2019-03-19T05:30:18.645Z,4.52
2019-03-19T05:35:23.697Z,4.54
2019-03-19T05:40:28.955Z,4.54
2019-03-19T05:45:34.421Z,4.58
2019-03-19T05:50:39.596Z,4.60
2019-03-19T05:55:44.678Z,4.57
2019-03-19T06:00:49.910Z,4.61
2019-03-19T06:05:55.096Z,4.67
2019-03-19T06:11:00.148Z,4.67
2019-03-19T06:16:05.352Z,4.73
2019-03-19T06:21:10.857Z,4.77
2019-03-19T06:26:15.978Z,4.80
2019-03-19T06:31:21.101Z,4.88
2019-03-19T06:36:26.267Z,4.96
2019-03-19T06:41:31.419Z,5.08
2019-03-19T06:46:36.764Z,5.15
2019-03-19T06:51:41.849Z,5.24
2019-03-19T06:56:46.906Z,5.30
2019-03-19T07:01:52.193Z,5.35
2019-03-19T07:06:57.345Z,5.52
2019-03-19T07:12:02.558Z,5.48
2019-03-19T07:17:07.895Z,5.59
2019-03-19T07:22:13.112Z,5.72
2019-03-19T07:27:18.183Z,5.91
2019-03-19T07:32:23.207Z,6.00
2019-03-19T07:37:28.294Z,6.14
2019-03-19T07:42:33.324Z,6.22
2019-03-19T07:47:38.429Z,6.24
2019-03-19T07:52:43.644Z,6.41
2019-03-19T07:57:48.838Z,6.68
2019-03-19T08:02:53.880Z,6.65
2019-03-19T08:07:58.956Z,6.72
2019-03-19T08:13:05.162Z,6.90
2019-03-19T08:18:10.367Z,7.03
2019-03-19T08:23:15.454Z,7.03
2019-03-19T08:28:20.529Z,7.00
2019-03-19T08:33:25.754Z,7.01
2019-03-19T08:38:30.877Z,6.98
2019-03-19T08:43:35.905Z,6.76
2019-03-19T08:48:41.005Z,6.69
2019-03-19T08:53:46.028Z,6.77
2019-03-19T08:58:51.329Z,6.60
2019-03-19T09:03:56.452Z,6.76
2019-03-19T09:09:01.742Z,7.11
2019-03-19T09:14:08.365Z,7.21
2019-03-19T09:19:13.440Z,7.51
2019-03-19T09:24:18.469Z,8.18
2019-03-19T09:29:25.394Z,8.44
2019-03-19T09:34:30.373Z,8.33
2019-03-19T09:39:35.609Z,7.53
2019-03-19T09:44:40.768Z,7.28
2019-03-19T09:49:45.807Z,7.67
2019-03-19T09:54:50.883Z,8.05
2019-03-19T09:59:55.915Z,8.63
2019-03-19T10:05:01.031Z,8.79
2019-03-19T10:10:09.241Z,8.79
2019-03-19T10:15:15.521Z,8.88
2019-03-19T10:20:25.667Z,9.02
2019-03-19T10:25:30.765Z,9.05
2019-03-19T10:30:35.992Z,8.98
2019-03-19T10:35:41.142Z,8.60
2019-03-19T10:40:46.228Z,8.57
2019-03-19T10:45:51.372Z,8.46
2019-03-19T10:50:56.451Z,8.30
2019-03-19T10:56:01.874Z,8.43
2019-03-19T11:01:07.088Z,8.04
2019-03-19T11:06:12.305Z,8.17
2019-03-19T11:11:17.319Z,8.54
2019-03-19T11:16:22.610Z,8.98
2019-03-19T11:21:27.743Z,9.42
2019-03-19T11:26:32.882Z,9.51
2019-03-19T11:31:37.989Z,9.99
2019-03-19T11:36:43.297Z,10.09
2019-03-19T11:41:48.485Z,9.45
2019-03-19T11:46:53.758Z,8.84
2019-03-19T11:51:58.878Z,8.66
2019-03-19T11:57:04.184Z,8.81
2019-03-19T12:02:09.458Z,9.10
2019-03-19T12:07:14.823Z,9.18
2019-03-19T12:12:21.047Z,9.22
2019-03-19T12:17:26.125Z,9.38
2019-03-19T12:22:31.316Z,9.59
2019-03-19T12:27:36.412Z,9.68
2019-03-19T12:32:41.591Z,9.41
2019-03-19T12:37:46.814Z,9.56
2019-03-19T12:42:51.819Z,9.91
2019-03-19T12:47:57.284Z,9.99
2019-03-19T12:53:02.502Z,10.43
2019-03-19T12:58:07.611Z,9.83
2019-03-19T13:03:13.126Z,9.67
2019-03-19T13:08:20.315Z,10.19
2019-03-19T13:13:24.995Z,10.10
2019-03-19T13:18:31.178Z,10.08
2019-03-19T13:23:36.296Z,9.57
2019-03-19T13:28:43.290Z,9.89
2019-03-19T13:33:48.100Z,9.93
2019-03-19T13:38:53.123Z,9.75
2019-03-19T13:43:58.159Z,9.51
2019-03-19T13:49:03.428Z,10.59
2019-03-19T13:54:08.573Z,12.03
2019-03-19T13:59:13.736Z,13.56
2019-03-19T14:04:21.051Z,14.78
2019-03-19T14:09:25.688Z,14.94
2019-03-19T14:14:30.880Z,14.99
2019-03-19T14:19:36.209Z,14.78
2019-03-19T14:24:41.353Z,14.36
2019-03-19T14:29:46.404Z,13.79
2019-03-19T14:34:51.451Z,14.21
2019-03-19T14:39:56.518Z,13.94
2019-03-19T14:45:01.550Z,14.56
2019-03-19T14:50:15.287Z,14.87
2019-03-19T14:55:20.386Z,13.89
2019-03-19T15:00:25.676Z,13.86
2019-03-19T15:05:30.750Z,15.14
2019-03-19T15:10:35.919Z,14.45
2019-03-19T15:15:41.050Z,14.27
2019-03-19T15:20:46.565Z,13.95
2019-03-19T15:25:51.803Z,14.08
2019-03-19T15:30:56.914Z,14.26
2019-03-19T15:36:03.167Z,12.94
2019-03-19T15:41:08.251Z,12.67
2019-03-19T15:46:13.334Z,9.98
2019-03-19T15:51:18.381Z,9.01
2019-03-19T15:56:23.613Z,8.49
2019-03-19T16:01:28.842Z,8.35
2019-03-19T16:06:34.162Z,8.10
2019-03-19T16:11:39.613Z,7.88
2019-03-19T16:16:44.870Z,7.68
2019-03-19T16:21:50.345Z,7.31
2019-03-19T16:26:57.064Z,7.20
2019-03-19T16:32:02.288Z,7.06
2019-03-19T16:37:07.420Z,6.96
2019-03-19T16:42:12.547Z,6.81
2019-03-19T16:47:17.599Z,6.64
2019-03-19T16:52:22.654Z,6.49
2019-03-19T16:57:27.696Z,6.43
2019-03-19T17:02:32.834Z,6.29
2019-03-19T17:07:37.949Z,6.13
2019-03-19T17:12:43.135Z,5.77
2019-03-19T17:17:48.391Z,5.77
2019-03-19T17:22:53.738Z,5.59
2019-03-19T17:27:58.975Z,5.54
2019-03-19T17:33:04.847Z,5.36
2019-03-19T17:38:10.104Z,5.41
2019-03-19T17:43:15.477Z,5.27
2019-03-19T17:48:20.688Z,5.26
2019-03-19T17:53:25.765Z,5.10
2019-03-19T17:58:30.964Z,5.14
2019-03-19T18:03:36.049Z,5.05
2019-03-19T18:08:41.117Z,5.00
2019-03-19T18:13:46.478Z,4.91
2019-03-19T18:18:51.633Z,4.90
2019-03-19T18:23:56.837Z,4.87
2019-03-19T18:29:02.326Z,4.65
2019-03-19T18:34:10.469Z,4.56
2019-03-19T18:39:16.795Z,4.44
2019-03-19T18:44:22.012Z,4.33
2019-03-19T18:49:27.066Z,4.33
2019-03-19T18:54:32.320Z,4.21
2019-03-19T18:59:37.426Z,4.09
2019-03-19T19:04:42.649Z,4.00
2019-03-19T19:09:47.722Z,3.99
2019-03-19T19:14:52.840Z,3.89
2019-03-19T19:19:57.885Z,3.79
2019-03-19T19:25:03.095Z,3.67
2019-03-19T19:30:16.881Z,3.64
2019-03-19T19:35:22.065Z,3.55
2019-03-19T19:40:27.214Z,3.51
2019-03-19T19:45:32.434Z,3.45
2019-03-19T19:50:37.573Z,3.34
2019-03-19T19:55:42.788Z,3.32
2019-03-19T20:00:48.014Z,3.22
2019-03-19T20:05:53.220Z,3.19
2019-03-19T20:10:58.387Z,3.21
2019-03-19T20:16:03.604Z,3.23
2019-03-19T20:21:08.743Z,3.24
2019-03-19T20:26:13.890Z,3.31
2019-03-19T20:31:19.303Z,3.21
2019-03-19T20:36:24.581Z,3.19
2019-03-19T20:41:30.846Z,3.16
2019-03-19T20:46:36.137Z,3.05
2019-03-19T20:51:41.394Z,3.04
2019-03-19T20:56:46.909Z,3.03
2019-03-19T21:01:52.077Z,3.00
2019-03-19T21:06:57.127Z,2.93
2019-03-19T21:12:02.451Z,2.81
2019-03-19T21:17:07.677Z,2.92
2019-03-19T21:22:13.013Z,2.77
2019-03-19T21:27:18.553Z,2.74
2019-03-19T21:32:23.816Z,2.78
2019-03-19T21:37:29.251Z,2.73
2019-03-19T21:42:34.714Z,2.68
2019-03-19T21:47:39.987Z,2.60
2019-03-19T21:52:45.525Z,2.65
2019-03-19T21:57:50.771Z,2.66
2019-03-19T22:02:56.961Z,2.59
2019-03-19T22:08:02.183Z,2.60
2019-03-19T22:13:07.471Z,2.65
2019-03-19T22:18:12.745Z,2.42
2019-03-19T22:23:17.970Z,2.41
2019-03-19T22:28:23.164Z,2.36
2019-03-19T22:33:28.218Z,2.41
2019-03-19T22:38:33.315Z,2.33
2019-03-19T22:43:38.518Z,2.21
2019-03-19T22:48:43.696Z,2.25
2019-03-19T22:53:48.824Z,2.17
2019-03-19T22:58:53.913Z,2.03
2019-03-19T23:03:59.047Z,2.07
2019-03-19T23:09:06.548Z,2.10
2019-03-19T23:14:12.049Z,2.12
2019-03-19T23:19:17.361Z,2.11
2019-03-19T23:24:22.399Z,2.09
2019-03-19T23:29:27.671Z,2.11
2019-03-19T23:34:38.589Z,2.13
2019-03-19T23:39:39.713Z,2.17
2019-03-19T23:44:45.017Z,2.17
2019-03-19T23:49:50.173Z,2.12
2019-03-19T23:54:55.345Z,2.12
